Time;durP1;ratioP1;P1;durP2;ratioP2;P2;SDS_P1;SDS_P2;PMS_P1;PMS_P2;Temp;Humidity;BMP_temperature;BMP_pressure;BME280_temperature;BME280_humidity;BME280_pressure;Samples;Min_cycle;Max_cycle;Signal;HPM_P1;HPM_P2
2021/05/05 00:00:24;;;;;;;4.43;1.33;;;;;;;9.63;81.17;98684.34;5071967;28;20115;-80
2021/05/05 00:02:50;;;;;;;7.78;1.23;;;;;;;9.66;81.08;98686.25;5070437;28;20063;-80
2021/05/05 00:05:15;;;;;;;8.27;1.90;;;;;;;9.65;81.33;98693.56;5073229;28;20457;-79
2021/05/05 00:07:42;;;;;;;5.57;1.42;;;;;;;9.81;81.33;98706.47;5057446;28;20424;-79
2021/05/05 00:10:09;;;;;;;5.82;1.42;;;;;;;9.63;81.76;98697.78;5056585;28;20485;-79
2021/05/05 00:12:36;;;;;;;4.63;1.75;;;;;;;9.48;82.69;98702.53;5078087;28;20036;-80
2021/05/05 00:15:08;;;;;;;6.22;1.70;;;;;;;9.63;83.42;98689.72;5071414;28;20040;-80
2021/05/05 00:17:33;;;;;;;9.55;1.90;;;;;;;9.58;83.83;98687.47;5069822;28;20037;-80
2021/05/05 00:19:59;;;;;;;4.45;1.58;;;;;;;9.60;84.00;98703.97;5067365;28;20550;-80
2021/05/05 00:22:24;;;;;;;6.60;1.77;;;;;;;9.58;84.74;98708.97;5069534;28;20059;-80
2021/05/05 00:24:50;;;;;;;3.72;1.50;;;;;;;9.55;85.83;98697.09;5052249;28;20045;-80
2021/05/05 00:27:15;;;;;;;1.85;1.40;;;;;;;9.57;85.83;98696.69;5073739;28;20032;-81
2021/05/05 00:29:41;;;;;;;2.35;1.67;;;;;;;9.38;86.40;98698.00;5075027;28;20033;-80
2021/05/05 00:32:07;;;;;;;4.82;1.70;;;;;;;9.44;86.18;98701.00;5060392;28;20130;-80
2021/05/05 00:34:33;;;;;;;3.90;1.73;;;;;;;9.57;86.43;98683.25;5076744;28;20029;-80
2021/05/05 00:36:58;;;;;;;4.20;1.60;;;;;;;9.75;85.09;98706.16;5067893;28;20429;-80
2021/05/05 00:39:24;;;;;;;3.15;1.52;;;;;;;9.63;85.63;98703.16;5061434;28;20060;-79
2021/05/05 00:41:49;;;;;;;7.50;1.58;;;;;;;9.53;85.21;98691.34;5071988;28;20044;-79
2021/05/05 00:44:17;;;;;;;3.90;1.33;;;;;;;9.60;85.60;98701.28;5075062;28;20016;-80
2021/05/05 00:46:42;;;;;;;5.28;1.58;;;;;;;9.56;84.93;98697.88;5047196;28;20048;-80
2021/05/05 00:49:08;;;;;;;8.13;1.50;;;;;;;9.53;84.50;98690.56;5059559;28;20033;-79
2021/05/05 00:51:33;;;;;;;3.25;1.70;;;;;;;9.40;84.56;98689.53;5075585;28;20032;-81
2021/05/05 00:54:00;;;;;;;2.47;1.50;;;;;;;9.54;84.34;98702.88;5070947;28;20021;-80
2021/05/05 00:56:26;;;;;;;4.72;1.25;;;;;;;9.41;84.42;98697.19;5056064;28;20028;-80
2021/05/05 00:58:51;;;;;;;3.25;1.20;;;;;;;9.41;84.04;98694.50;5061369;22;20546;-72
2021/05/05 01:01:17;;;;;;;2.75;1.02;;;;;;;9.48;84.06;98696.38;5000944;28;20030;-72
2021/05/05 01:03:43;;;;;;;7.07;1.30;;;;;;;9.36;83.86;98686.88;4992953;28;20172;-72
2021/05/05 01:06:09;;;;;;;7.63;1.48;;;;;;;9.49;84.70;98697.91;5000329;28;20030;-73
2021/05/05 01:08:35;;;;;;;4.20;1.25;;;;;;;9.61;84.18;98686.69;4998540;28;20410;-72
2021/05/05 01:11:01;;;;;;;5.00;1.45;;;;;;;9.43;84.26;98683.34;5001123;28;20033;-72
2021/05/05 01:13:28;;;;;;;3.05;1.45;;;;;;;9.47;85.16;98698.28;4990761;28;20045;-74
2021/05/05 01:15:56;;;;;;;4.97;1.48;;;;;;;9.65;84.69;98687.41;4988068;28;20089;-72
2021/05/05 01:18:22;;;;;;;3.65;1.65;;;;;;;9.58;84.76;98688.22;4990130;28;20453;-72
2021/05/05 01:20:47;;;;;;;3.65;1.50;;;;;;;9.52;85.44;98681.78;4996580;28;20034;-72
2021/05/05 01:23:13;;;;;;;2.38;1.30;;;;;;;9.47;85.52;98684.88;5002454;28;20031;-72
2021/05/05 01:25:39;;;;;;;5.22;1.63;;;;;;;9.50;84.96;98686.00;4997310;28;20038;-72
2021/05/05 01:28:04;;;;;;;4.22;1.52;;;;;;;9.52;85.02;98686.38;4991130;28;20077;-73
2021/05/05 01:30:30;;;;;;;5.10;1.52;;;;;;;9.47;85.32;98673.34;4990074;28;20464;-72
2021/05/05 01:32:56;;;;;;;4.07;1.55;;;;;;;9.41;85.26;98681.06;4984442;28;20068;-72
2021/05/05 01:35:24;;;;;;;3.10;1.50;;;;;;;9.58;85.21;98676.72;4981963;28;20071;-74
2021/05/05 01:37:51;;;;;;;2.50;1.35;;;;;;;9.43;84.97;98694.09;4990587;28;20719;-73
2021/05/05 01:40:24;;;;;;;3.10;1.45;;;;;;;9.45;84.03;98700.63;4988570;28;20122;-72
2021/05/05 01:42:51;;;;;;;2.22;1.42;;;;;;;9.32;84.53;98680.00;4990661;28;20109;-73
2021/05/05 01:45:16;;;;;;;3.10;1.20;;;;;;;9.61;83.96;98682.06;4989603;28;20239;-72
2021/05/05 01:47:42;;;;;;;3.25;1.38;;;;;;;9.48;83.89;98694.47;4991193;28;20034;-72
2021/05/05 01:50:10;;;;;;;2.65;1.30;;;;;;;9.41;84.34;98681.06;4985591;28;20096;-73
2021/05/05 01:52:36;;;;;;;5.40;1.33;;;;;;;9.54;84.18;98689.44;4998109;28;20026;-72
2021/05/05 01:55:04;;;;;;;4.93;1.60;;;;;;;9.42;83.72;98684.53;4988903;28;20518;-72
2021/05/05 01:57:33;;;;;;;7.70;1.60;;;;;;;9.35;84.04;98679.97;4993469;28;20038;-73
2021/05/05 02:00:08;;;;;;;4.38;1.50;;;;;;;9.43;83.67;98694.09;5004578;28;20030;-72
2021/05/05 02:02:43;;;;;;;1.52;1.00;;;;;;;9.35;84.03;98682.66;4991763;28;20513;-72
2021/05/05 02:05:11;;;;;;;2.30;1.20;;;;;;;9.25;83.74;98680.81;5003342;28;20075;-73
2021/05/05 02:07:46;;;;;;;4.65;1.40;;;;;;;9.38;84.02;98679.19;4988008;28;20022;-72
2021/05/05 02:10:15;;;;;;;4.80;1.30;;;;;;;9.42;84.06;98679.16;4986535;28;20026;-72
2021/05/05 02:12:41;;;;;;;3.75;1.30;;;;;;;9.42;83.66;98681.84;4990769;28;20039;-72
2021/05/05 02:15:10;;;;;;;4.95;1.20;;;;;;;9.35;83.85;98685.34;4990054;28;20518;-72
2021/05/05 02:17:37;;;;;;;3.03;1.00;;;;;;;9.31;84.37;98691.91;4986298;28;20034;-72
2021/05/05 02:20:09;;;;;;;5.60;1.67;;;;;;;9.24;84.69;98681.97;5008063;28;20580;-74
2021/05/05 02:22:35;;;;;;;2.83;1.25;;;;;;;9.02;85.28;98673.28;4998855;28;20401;-72
2021/05/05 02:25:02;;;;;;;4.40;1.30;;;;;;;9.16;85.02;98680.47;5011290;28;20109;-72
2021/05/05 02:27:28;;;;;;;1.45;0.82;;;;;;;9.23;84.51;98675.06;4978078;28;20026;-73
2021/05/05 02:29:55;;;;;;;2.28;1.25;;;;;;;9.27;84.78;98669.69;4986037;28;20499;-72
2021/05/05 02:32:53;;;;;;;4.00;1.30;;;;;;;9.30;84.57;98666.97;4984491;28;20034;-72
2021/05/05 02:35:19;;;;;;;3.72;1.33;;;;;;;9.17;85.22;98665.13;4997453;28;20037;-72
2021/05/05 02:37:47;;;;;;;3.60;1.30;;;;;;;9.18;85.35;98661.28;4989287;28;20041;-73
2021/05/05 02:40:14;;;;;;;3.63;1.20;;;;;;;9.08;85.57;98662.88;4985056;28;20422;-72
2021/05/05 02:42:41;;;;;;;4.18;1.30;;;;;;;9.13;86.08;98667.09;4986630;28;20084;-73
2021/05/05 02:45:08;;;;;;;3.72;1.40;;;;;;;9.31;85.61;98667.72;4986528;28;20033;-73
2021/05/05 02:47:34;;;;;;;7.85;1.30;;;;;;;9.21;85.54;98649.78;4996426;28;20731;-72
2021/05/05 02:50:00;;;;;;;6.07;1.45;;;;;;;9.02;85.53;98646.44;4990774;28;20165;-72
2021/05/05 02:52:26;;;;;;;4.18;1.40;;;;;;;9.03;85.74;98655.25;4995351;28;20113;-72
2021/05/05 02:54:51;;;;;;;3.85;1.40;;;;;;;8.95;85.51;98646.50;4988809;28;20023;-72
2021/05/05 02:57:18;;;;;;;3.00;1.30;;;;;;;9.04;85.08;98649.50;4991598;28;20049;-75
2021/05/05 02:59:43;;;;;;;4.28;1.10;;;;;;;9.10;84.85;98645.22;4990838;28;20046;-73
2021/05/05 03:02:09;;;;;;;4.68;1.20;;;;;;;9.09;84.63;98649.09;4993557;28;20064;-72
2021/05/05 03:04:34;;;;;;;5.03;1.20;;;;;;;9.09;84.74;98654.47;5004303;28;20389;-72
2021/05/05 03:07:00;;;;;;;2.70;0.93;;;;;;;9.10;84.05;98637.19;4992506;28;20461;-72
2021/05/05 03:09:26;;;;;;;5.25;1.20;;;;;;;9.16;84.44;98660.91;4991204;28;20081;-72
2021/05/05 03:11:56;;;;;;;4.03;1.27;;;;;;;9.12;84.70;98657.50;4989550;28;20030;-72
2021/05/05 03:14:23;;;;;;;3.55;1.83;;;;;;;9.14;84.86;98644.47;4993601;28;20074;-73
2021/05/05 03:16:49;;;;;;;8.75;1.42;;;;;;;9.17;84.65;98652.47;4991181;28;20038;-72
2021/05/05 03:19:15;;;;;;;4.22;1.10;;;;;;;9.20;84.22;98643.63;4986345;28;20039;-72
2021/05/05 03:21:41;;;;;;;2.58;1.20;;;;;;;9.09;84.19;98659.06;5001885;28;20038;-72
2021/05/05 03:24:07;;;;;;;4.13;1.17;;;;;;;9.11;84.22;98656.75;5002049;28;20402;-73
2021/05/05 03:26:32;;;;;;;5.10;1.40;;;;;;;9.10;84.49;98647.91;4991509;28;20080;-73
2021/05/05 03:28:58;;;;;;;5.18;1.40;;;;;;;8.94;85.01;98644.19;4984253;28;20368;-73
2021/05/05 03:31:24;;;;;;;2.60;1.20;;;;;;;9.01;84.55;98647.59;4992186;28;20038;-72
2021/05/05 03:33:49;;;;;;;5.45;1.30;;;;;;;9.08;84.58;98639.50;4987653;28;20070;-72
2021/05/05 03:36:15;;;;;;;3.88;1.35;;;;;;;9.04;84.52;98649.50;4992800;28;20042;-73
2021/05/05 03:38:40;;;;;;;5.10;1.50;;;;;;;8.85;84.66;98652.69;4993020;28;20058;-72
2021/05/05 03:41:06;;;;;;;6.80;1.33;;;;;;;9.08;84.16;98644.84;5007890;28;20038;-72
2021/05/05 03:43:31;;;;;;;8.48;1.48;;;;;;;9.08;84.75;98644.09;4993426;28;20026;-73
2021/05/05 03:45:57;;;;;;;4.07;1.30;;;;;;;9.04;84.77;98646.03;4993371;28;20503;-73
2021/05/05 03:48:23;;;;;;;5.43;1.20;;;;;;;8.98;84.61;98644.94;5002324;28;20037;-72
2021/05/05 03:50:49;;;;;;;9.85;1.45;;;;;;;8.85;84.88;98646.53;5002506;28;20026;-72
2021/05/05 03:53:15;;;;;;;9.18;1.30;;;;;;;9.00;84.69;98638.00;4993292;28;20817;-72
2021/05/05 03:55:40;;;;;;;7.20;1.23;;;;;;;8.95;84.57;98637.66;5021161;28;20125;-73
2021/05/05 03:58:06;;;;;;;2.42;1.10;;;;;;;9.05;84.33;98626.09;5000288;28;20399;-73
2021/05/05 04:00:31;;;;;;;6.40;1.05;;;;;;;9.07;84.14;98637.97;4985175;28;20038;-73
2021/05/05 04:02:57;;;;;;;4.40;1.13;;;;;;;9.16;84.27;98636.75;4992256;28;20038;-72
2021/05/05 04:05:22;;;;;;;4.13;1.25;;;;;;;9.20;83.06;98648.22;4972183;28;20041;-72
2021/05/05 04:07:48;;;;;;;5.32;1.38;;;;;;;9.03;83.64;98644.50;4992115;28;20499;-72
2021/05/05 04:10:14;;;;;;;3.00;1.10;;;;;;;8.99;84.39;98649.16;4994241;28;20038;-72
2021/05/05 04:12:40;;;;;;;1.77;1.10;;;;;;;9.02;84.56;98638.38;4997170;28;20070;-72
2021/05/05 04:15:06;;;;;;;2.28;1.10;;;;;;;8.89;84.87;98647.28;4992025;28;20037;-73
2021/05/05 04:17:31;;;;;;;3.55;1.02;;;;;;;8.97;85.19;98648.78;4983730;28;20042;-72
2021/05/05 04:19:57;;;;;;;5.82;1.42;;;;;;;9.16;84.41;98650.16;4990926;28;20089;-72
2021/05/05 04:22:24;;;;;;;5.45;1.23;;;;;;;9.08;84.00;98647.53;4992740;28;20506;-72
2021/05/05 04:24:50;;;;;;;2.95;1.30;;;;;;;9.03;84.34;98645.28;4991937;28;20057;-72
2021/05/05 04:27:17;;;;;;;5.03;1.40;;;;;;;8.83;85.07;98649.63;4991792;28;20026;-72
2021/05/05 04:29:43;;;;;;;3.08;1.20;;;;;;;8.96;84.88;98655.31;4991009;28;20088;-72
2021/05/05 04:32:10;;;;;;;7.13;1.55;;;;;;;8.96;85.18;98648.00;4992072;28;20030;-73
2021/05/05 04:34:35;;;;;;;3.75;1.23;;;;;;;8.88;85.21;98638.47;4990129;28;20042;-72
2021/05/05 04:37:03;;;;;;;6.57;1.63;;;;;;;8.85;84.99;98638.47;4997673;28;20113;-73
2021/05/05 04:39:28;;;;;;;5.07;1.20;;;;;;;8.72;85.77;98640.88;4990423;28;20046;-72
2021/05/05 04:41:54;;;;;;;6.35;1.33;;;;;;;8.93;84.79;98646.13;4993365;28;20040;-72
2021/05/05 04:44:19;;;;;;;3.08;1.40;;;;;;;9.03;85.76;98644.50;4994752;28;20039;-72
2021/05/05 04:46:45;;;;;;;7.35;1.13;;;;;;;9.04;86.10;98656.78;5005152;28;20049;-73
2021/05/05 04:49:11;;;;;;;5.00;1.70;;;;;;;8.95;85.99;98654.53;4992606;28;20038;-73
2021/05/05 04:51:38;;;;;;;6.30;1.30;;;;;;;8.97;85.77;98649.53;4991636;28;20502;-72
2021/05/05 04:54:07;;;;;;;5.45;1.40;;;;;;;8.95;85.70;98643.03;5008949;28;20042;-72
2021/05/05 04:56:32;;;;;;;6.88;1.40;;;;;;;9.01;86.00;98657.56;4990855;28;20038;-72
2021/05/05 04:58:58;;;;;;;6.25;1.23;;;;;;;9.04;86.09;98660.22;4992837;28;20038;-72
2021/05/05 05:01:23;;;;;;;3.05;1.40;;;;;;;8.92;85.49;98671.41;4992796;28;20064;-75
2021/05/05 05:03:49;;;;;;;6.78;1.48;;;;;;;8.97;84.58;98662.19;4988182;28;20064;-72
2021/05/05 05:06:14;;;;;;;3.40;1.30;;;;;;;9.09;85.07;98673.25;5003730;28;20113;-72
2021/05/05 05:08:40;;;;;;;6.90;1.42;;;;;;;9.13;83.93;98664.41;4992012;28;20057;-72
2021/05/05 05:11:05;;;;;;;4.30;1.30;;;;;;;9.11;84.55;98672.84;4991499;28;20080;-72
2021/05/05 05:13:31;;;;;;;7.47;1.20;;;;;;;9.20;84.25;98667.03;4990806;28;20467;-72
2021/05/05 05:15:56;;;;;;;3.78;1.17;;;;;;;9.13;83.36;98677.81;4989071;28;20033;-73
2021/05/05 05:18:21;;;;;;;6.35;1.50;;;;;;;9.19;83.46;98676.25;4986229;28;20039;-72
2021/05/05 05:20:47;;;;;;;4.38;1.20;;;;;;;9.02;83.82;98685.94;4978666;28;20034;-73
2021/05/05 05:23:15;;;;;;;11.05;1.60;;;;;;;8.91;84.31;98686.00;4987766;28;20027;-73
2021/05/05 05:25:40;;;;;;;6.78;1.70;;;;;;;8.84;84.28;98679.91;4985973;28;20404;-73
2021/05/05 05:28:06;;;;;;;3.75;1.55;;;;;;;8.80;84.78;98677.25;4985649;28;20153;-72
2021/05/05 05:30:31;;;;;;;5.05;1.40;;;;;;;8.80;84.33;98679.94;4986394;28;20042;-72
2021/05/05 05:32:57;;;;;;;2.67;1.00;;;;;;;9.00;83.49;98677.53;4989838;28;20038;-72
2021/05/05 05:35:22;;;;;;;2.00;0.98;;;;;;;8.99;83.41;98679.44;4989221;28;20410;-71
2021/05/05 05:37:48;;;;;;;2.55;1.20;;;;;;;8.88;84.26;98689.44;4984478;28;20457;-72
2021/05/05 05:40:15;;;;;;;7.97;1.33;;;;;;;8.93;84.75;98688.28;4988163;28;20068;-72
2021/05/05 05:42:40;;;;;;;5.00;1.25;;;;;;;9.04;83.74;98684.38;4989830;28;20526;-72
2021/05/05 05:45:07;;;;;;;6.07;1.30;;;;;;;9.27;82.81;98677.72;4995775;28;20031;-72
2021/05/05 05:47:32;;;;;;;6.50;1.25;;;;;;;9.23;82.93;98668.94;4985476;28;20034;-72
2021/05/05 05:49:58;;;;;;;3.58;1.10;;;;;;;9.16;83.86;98674.34;4988334;28;20053;-75
2021/05/05 05:52:23;;;;;;;2.92;1.40;;;;;;;9.20;84.71;98675.84;4982593;28;20411;-72
2021/05/05 05:54:49;;;;;;;5.70;1.55;;;;;;;9.19;85.10;98674.34;4984322;28;20031;-71
2021/05/05 05:57:14;;;;;;;3.08;1.40;;;;;;;9.02;86.14;98686.69;4975442;28;20223;-71
2021/05/05 05:59:40;;;;;;;3.67;1.42;;;;;;;9.30;85.84;98677.72;4982216;28;20182;-73
2021/05/05 06:02:05;;;;;;;5.03;1.33;;;;;;;9.17;86.47;98686.63;4982565;28;20036;-72
2021/05/05 06:04:31;;;;;;;2.53;1.52;;;;;;;9.30;86.31;98679.63;4983923;28;20030;-75
2021/05/05 06:06:57;;;;;;;9.95;1.35;;;;;;;9.21;85.73;98674.72;4988309;28;20046;-73
2021/05/05 06:09:22;;;;;;;4.90;1.25;;;;;;;9.03;86.46;98685.56;4984194;28;20027;-74
2021/05/05 06:11:48;;;;;;;8.43;1.42;;;;;;;9.20;85.27;98672.41;4987396;28;20578;-72
2021/05/05 06:14:14;;;;;;;4.28;1.40;;;;;;;9.08;84.16;98679.75;4987378;28;20034;-72
2021/05/05 06:16:40;;;;;;;3.40;1.35;;;;;;;9.22;84.92;98673.53;4997610;28;20034;-72
2021/05/05 06:19:05;;;;;;;5.90;1.60;;;;;;;9.48;83.05;98678.34;4986732;28;20085;-73
2021/05/05 06:21:31;;;;;;;5.68;1.20;;;;;;;9.44;82.21;98676.84;4985066;28;20407;-72
2021/05/05 06:23:57;;;;;;;8.85;1.60;;;;;;;9.51;82.04;98669.47;5003029;28;20040;-72
2021/05/05 06:26:22;;;;;;;2.97;1.10;;;;;;;9.54;81.28;98662.56;4985419;28;20720;-72
2021/05/05 06:28:48;;;;;;;4.80;1.50;;;;;;;9.47;81.27;98662.59;4984123;28;20049;-72
2021/05/05 06:31:13;;;;;;;5.38;1.40;;;;;;;9.48;81.75;98672.97;4989282;28;20073;-74
2021/05/05 06:33:39;;;;;;;5.97;1.48;;;;;;;9.46;81.10;98667.22;4983729;28;20125;-72
2021/05/05 06:36:05;;;;;;;7.30;1.52;;;;;;;9.43;81.73;98686.81;4991569;28;20034;-76
2021/05/05 06:38:31;;;;;;;5.50;1.38;;;;;;;9.40;81.59;98686.84;4988257;28;20026;-72
2021/05/05 06:40:56;;;;;;;4.05;1.13;;;;;;;9.40;82.36;98700.28;4986997;28;20067;-71
2021/05/05 06:43:22;;;;;;;4.20;1.20;;;;;;;9.27;82.21;98685.78;4990436;28;20030;-73
2021/05/05 06:45:48;;;;;;;5.82;1.20;;;;;;;9.21;83.46;98690.03;5002048;28;20053;-72
2021/05/05 06:48:13;;;;;;;6.28;1.30;;;;;;;9.18;83.67;98696.19;4986017;28;20069;-76
2021/05/05 06:50:39;;;;;;;7.95;1.30;;;;;;;9.20;83.40;98688.50;4984626;28;20026;-73
2021/05/05 06:53:04;;;;;;;4.40;1.27;;;;;;;9.18;84.20;98693.50;4991262;28;20046;-75
2021/05/05 06:55:30;;;;;;;4.30;1.35;;;;;;;9.36;83.08;98699.53;4984375;28;20042;-72
2021/05/05 06:57:55;;;;;;;6.35;1.52;;;;;;;9.27;82.83;98699.22;4997566;28;20418;-72
2021/05/05 07:00:22;;;;;;;5.55;1.40;;;;;;;9.27;83.91;98699.22;5005756;22;20112;-80
2021/05/05 07:02:48;;;;;;;6.35;1.38;;;;;;;9.41;83.63;98693.72;5013997;28;20496;-79
2021/05/05 07:05:14;;;;;;;5.35;1.17;;;;;;;9.19;83.87;98711.16;5014077;28;20076;-79
2021/05/05 07:07:40;;;;;;;5.10;1.30;;;;;;;8.97;85.51;98697.09;5014520;28;20037;-80
2021/05/05 07:10:06;;;;;;;5.50;1.60;;;;;;;9.12;87.13;98716.59;4981572;28;20107;-77
2021/05/05 07:12:32;;;;;;;7.68;1.60;;;;;;;9.29;87.49;98711.06;4993167;28;20125;-79
2021/05/05 07:14:57;;;;;;;3.42;1.38;;;;;;;9.24;87.78;98713.41;5011762;28;20120;-78
2021/05/05 07:17:23;;;;;;;5.78;1.45;;;;;;;9.10;88.36;98731.16;5020336;28;20437;-79
2021/05/05 07:19:51;;;;;;;4.22;1.23;;;;;;;8.79;90.60;98724.00;5015317;28;20057;-80
2021/05/05 07:22:17;;;;;;;6.90;1.50;;;;;;;9.03;90.31;98728.50;5013511;28;20033;-80
2021/05/05 07:24:43;;;;;;;6.40;1.85;;;;;;;9.17;90.64;98732.25;5013851;28;20038;-80
2021/05/05 07:27:09;;;;;;;7.25;2.22;;;;;;;9.32;91.12;98733.72;4994962;28;20253;-77
2021/05/05 07:29:34;;;;;;;5.25;2.05;;;;;;;9.20;91.88;98731.47;5010185;28;20034;-78
2021/05/05 07:32:00;;;;;;;3.60;1.90;;;;;;;9.03;92.16;98730.44;5009046;28;20026;-78
2021/05/05 07:34:26;;;;;;;6.18;1.75;;;;;;;8.97;92.76;98740.81;5015012;28;20024;-78
2021/05/05 07:36:54;;;;;;;4.07;1.98;;;;;;;9.09;93.53;98745.75;4989463;28;20046;-78
2021/05/05 07:39:41;;;;;;;4.47;1.48;;;;;;;9.01;94.35;98744.25;5009282;28;20037;-78
2021/05/05 07:47:25;;;;;;;6.40;1.92;;;;;;;8.92;96.42;98759.25;5005483;28;20433;-78
2021/05/05 07:49:54;;;;;;;6.60;1.65;;;;;;;8.75;97.89;98749.34;5010515;28;20034;-78
2021/05/05 07:52:20;;;;;;;6.90;1.90;;;;;;;8.88;96.74;98756.56;5012045;28;20029;-77
2021/05/05 07:54:47;;;;;;;4.70;1.55;;;;;;;8.90;96.96;98766.91;5012197;28;20037;-78
2021/05/05 07:57:12;;;;;;;5.28;2.00;;;;;;;8.78;97.02;98761.97;4975554;28;20097;-78
2021/05/05 07:59:39;;;;;;;6.97;1.50;;;;;;;8.89;96.49;98768.84;5004568;28;20076;-79
2021/05/05 08:02:05;;;;;;;4.90;1.80;;;;;;;8.90;97.07;98753.50;5008900;28;20034;-78
2021/05/05 08:04:32;;;;;;;3.35;1.77;;;;;;;8.77;97.72;98771.16;5012725;28;20045;-79
2021/05/05 08:06:58;;;;;;;5.93;1.65;;;;;;;9.00;97.29;98774.16;5013344;28;20029;-79
2021/05/05 08:09:25;;;;;;;5.60;2.20;;;;;;;8.81;97.12;98766.56;4990189;28;20037;-79
2021/05/05 08:11:50;;;;;;;4.85;2.20;;;;;;;8.91;97.51;98776.50;5009507;28;20447;-79
2021/05/05 08:14:17;;;;;;;6.85;1.85;;;;;;;8.69;97.96;98775.78;5005779;28;20140;-78
2021/05/05 08:16:42;;;;;;;5.28;1.92;;;;;;;8.84;98.98;98784.56;5010165;28;20032;-79
2021/05/05 08:19:08;;;;;;;4.68;2.17;;;;;;;8.90;98.38;98767.66;5009927;28;20535;-79
2021/05/05 08:21:33;;;;;;;4.55;1.85;;;;;;;8.92;98.50;98783.41;4992697;28;20042;-78
2021/05/05 08:23:59;;;;;;;6.07;2.38;;;;;;;8.88;98.80;98769.22;5012483;28;20058;-78
2021/05/05 08:26:25;;;;;;;6.55;2.30;;;;;;;8.78;98.12;98783.44;4993445;28;20048;-78
2021/05/05 08:28:51;;;;;;;9.10;2.38;;;;;;;8.82;97.67;98776.16;5011193;28;20421;-79
2021/05/05 08:31:17;;;;;;;9.50;2.17;;;;;;;8.90;97.27;98799.13;5011658;28;20037;-78
2021/05/05 08:33:42;;;;;;;7.47;2.42;;;;;;;8.96;96.61;98784.91;5017005;28;20061;-78
2021/05/05 08:36:08;;;;;;;7.97;2.13;;;;;;;8.93;95.92;98792.97;5018901;28;20042;-78
2021/05/05 08:38:33;;;;;;;7.25;2.25;;;;;;;8.88;94.79;98794.13;5014429;28;20553;-79
2021/05/05 08:40:59;;;;;;;4.85;2.15;;;;;;;9.07;95.11;98785.63;5018035;28;20033;-79
2021/05/05 08:43:25;;;;;;;8.65;2.28;;;;;;;9.10;94.85;98787.53;5019016;28;20038;-80
2021/05/05 08:45:57;;;;;;;9.82;2.63;;;;;;;9.15;94.07;98780.22;5020823;28;20041;-80
2021/05/05 08:48:23;;;;;;;3.80;1.80;;;;;;;9.12;94.34;98791.75;5022695;28;20026;-80
2021/05/05 08:50:48;;;;;;;7.60;2.05;;;;;;;9.19;93.63;98799.78;5019688;28;20101;-78
2021/05/05 08:53:14;;;;;;;11.05;2.22;;;;;;;9.14;93.48;98795.56;5012391;28;20034;-78
2021/05/05 08:55:40;;;;;;;5.95;1.80;;;;;;;9.13;93.45;98814.75;5009972;28;20037;-77
2021/05/05 08:58:05;;;;;;;9.88;2.28;;;;;;;9.33;94.11;98792.41;5012226;28;20038;-79
2021/05/05 09:00:33;;;;;;;13.27;2.72;;;;;;;9.11;93.76;98812.47;5011543;28;20087;-78
2021/05/05 09:03:02;;;;;;;10.63;2.03;;;;;;;9.15;94.91;98809.75;5006029;28;20033;-78
2021/05/05 09:05:44;;;;;;;12.32;2.40;;;;;;;9.04;96.99;98815.16;5005721;28;20042;-78
2021/05/05 09:08:10;;;;;;;5.78;1.95;;;;;;;9.19;96.27;98827.41;4993177;28;20033;-77
2021/05/05 09:11:01;;;;;;;8.95;2.20;;;;;;;9.31;95.94;98826.94;5007547;28;20585;-77
2021/05/05 09:13:48;;;;;;;4.82;2.35;;;;;;;9.20;95.79;98820.84;5008459;28;20038;-77
2021/05/05 09:16:22;;;;;;;10.98;2.60;;;;;;;9.05;96.47;98836.28;4991324;28;20041;-78
2021/05/05 09:19:04;;;;;;;6.43;2.20;;;;;;;9.04;97.26;98829.34;5013505;28;20033;-79
2021/05/05 09:21:40;;;;;;;10.98;2.13;;;;;;;9.05;96.71;98830.91;5011298;28;20037;-78
2021/05/05 09:24:27;;;;;;;6.88;2.30;;;;;;;8.96;97.16;98837.84;5010448;28;20038;-78
2021/05/05 09:26:54;;;;;;;9.50;2.40;;;;;;;8.82;96.92;98844.00;5009165;28;20065;-79
2021/05/05 09:29:22;;;;;;;12.93;2.42;;;;;;;8.95;96.52;98845.13;5005955;28;20401;-78
2021/05/05 09:31:48;;;;;;;11.45;2.20;;;;;;;9.03;96.86;98867.34;5007838;28;20030;-79
2021/05/05 09:34:13;;;;;;;6.47;2.08;;;;;;;8.93;96.88;98860.06;5009459;28;20036;-78
2021/05/05 09:36:57;;;;;;;9.27;2.38;;;;;;;8.89;97.37;98853.94;5009662;28;20033;-78
2021/05/05 09:39:28;;;;;;;5.40;2.17;;;;;;;9.07;97.65;98850.06;5008621;28;20036;-78
2021/05/05 09:41:54;;;;;;;4.72;2.05;;;;;;;9.04;96.92;98858.88;5007578;28;20041;-78
2021/05/05 09:44:20;;;;;;;7.47;2.10;;;;;;;8.99;96.12;98867.34;5010001;28;20030;-78
2021/05/05 09:46:47;;;;;;;6.60;1.70;;;;;;;9.24;95.99;98861.13;5014198;28;20643;-78
2021/05/05 09:49:21;;;;;;;3.92;2.22;;;;;;;9.05;96.04;98860.44;5004407;28;20052;-78
2021/05/05 09:51:50;;;;;;;9.18;2.05;;;;;;;9.15;96.82;98868.84;5011304;28;20057;-78
2021/05/05 09:54:27;;;;;;;6.43;1.92;;;;;;;9.20;97.47;98857.69;5009146;28;20105;-78
2021/05/05 09:56:54;;;;;;;7.88;1.88;;;;;;;9.26;95.78;98875.69;5005807;28;20052;-79
2021/05/05 09:59:22;;;;;;;7.38;2.05;;;;;;;9.25;95.83;98881.47;5007258;28;20030;-80
2021/05/05 10:02:03;;;;;;;4.43;1.60;;;;;;;9.44;95.90;98883.69;5015056;28;20030;-78
2021/05/05 10:04:30;;;;;;;6.20;2.13;;;;;;;9.40;95.38;98872.19;5013415;28;20072;-77
2021/05/05 10:07:00;;;;;;;6.13;1.95;;;;;;;9.37;95.42;98881.78;5014034;28;20037;-78
2021/05/05 10:09:26;;;;;;;7.40;1.85;;;;;;;9.46;94.52;98874.09;4991384;28;20104;-78
2021/05/05 10:11:53;;;;;;;6.45;1.90;;;;;;;9.49;94.79;98869.84;4998695;28;20166;-77
2021/05/05 10:14:20;;;;;;;5.70;1.92;;;;;;;9.73;93.90;98871.66;5001589;28;20038;-77
2021/05/05 10:16:49;;;;;;;6.35;2.10;;;;;;;9.94;92.86;98863.47;5012599;28;20513;-77
2021/05/05 10:19:21;;;;;;;6.50;1.98;;;;;;;10.27;92.32;98868.25;5023111;28;20041;-78
2021/05/05 10:21:51;;;;;;;7.85;2.17;;;;;;;10.77;90.37;98869.34;5021629;28;20033;-78
2021/05/05 10:24:16;;;;;;;6.95;2.03;;;;;;;10.96;88.74;98875.28;5018268;28;20029;-78
2021/05/05 10:26:43;;;;;;;5.10;2.00;;;;;;;11.18;87.45;98874.69;5012740;28;20022;-79
2021/05/05 10:29:09;;;;;;;12.35;2.33;;;;;;;11.02;85.70;98874.47;5022600;28;20017;-79
2021/05/05 10:31:36;;;;;;;8.95;1.90;;;;;;;10.67;85.70;98875.59;5025435;28;20030;-78
2021/05/05 10:34:08;;;;;;;5.93;1.80;;;;;;;10.46;86.43;98875.78;5020549;28;20052;-78
2021/05/05 10:36:41;;;;;;;5.00;1.80;;;;;;;10.45;86.77;98890.38;5014664;28;20049;-81
2021/05/05 10:39:18;;;;;;;8.38;1.67;;;;;;;10.29;88.06;98889.38;4984331;28;20063;-78
2021/05/05 10:41:59;;;;;;;4.18;1.40;;;;;;;9.82;89.86;98902.31;5015038;28;20042;-77
2021/05/05 10:44:53;;;;;;;5.40;1.40;;;;;;;9.96;90.73;98904.16;5016629;28;20072;-78
2021/05/05 10:47:34;;;;;;;6.43;1.42;;;;;;;9.95;91.32;98894.53;5014532;28;20502;-78
2021/05/05 10:52:49;;;;;;;2.80;1.05;;;;;;;10.08;89.07;98903.72;5012832;28;20037;-78
2021/05/05 10:55:31;;;;;;;5.53;1.35;;;;;;;10.35;88.14;98893.94;5004067;28;20045;-78
2021/05/05 10:58:08;;;;;;;3.85;1.40;;;;;;;10.63;87.43;98899.06;5010115;28;20050;-78
2021/05/05 11:00:50;;;;;;;4.30;1.35;;;;;;;10.66;85.48;98901.00;5007038;28;20529;-78
2021/05/05 11:03:17;;;;;;;2.97;1.27;;;;;;;10.66;84.21;98895.59;4999696;28;20125;-78
2021/05/05 11:05:45;;;;;;;6.68;1.70;;;;;;;10.73;83.89;98898.22;5018444;28;20087;-78
2021/05/05 11:08:29;;;;;;;10.18;1.50;;;;;;;10.95;83.46;98900.72;5013265;28;20057;-78
2021/05/05 11:10:58;;;;;;;6.07;1.67;;;;;;;10.95;83.52;98881.84;5015454;28;20041;-78
2021/05/05 11:13:24;;;;;;;4.75;1.45;;;;;;;11.08;82.36;98901.72;5000862;28;20409;-79
2021/05/05 11:15:55;;;;;;;3.78;1.60;;;;;;;10.84;80.67;98890.81;4997579;28;20513;-79
2021/05/05 11:18:28;;;;;;;2.13;1.35;;;;;;;11.00;79.90;98884.09;4996403;28;20422;-79
2021/05/05 11:20:56;;;;;;;5.93;1.33;;;;;;;11.17;79.90;98902.78;5014821;28;20041;-78
2021/05/05 11:23:34;;;;;;;2.38;0.88;;;;;;;11.17;78.56;98915.50;4995619;28;20045;-79
2021/05/05 11:26:17;;;;;;;2.35;0.90;;;;;;;11.06;79.03;98901.34;5012201;28;21592;-78
2021/05/05 11:29:10;;;;;;;1.30;0.88;;;;;;;11.09;80.33;98924.81;5013029;28;20080;-79
2021/05/05 11:31:45;;;;;;;3.17;1.05;;;;;;;10.93;80.31;98921.88;5006780;28;20394;-78
2021/05/05 11:34:28;;;;;;;2.30;0.93;;;;;;;10.73;80.48;98927.06;5008124;28;21996;-79
2021/05/05 11:37:00;;;;;;;1.17;0.90;;;;;;;10.58;84.48;98921.03;5017748;28;20038;-78
2021/05/05 11:39:29;;;;;;;2.67;0.90;;;;;;;10.63;84.46;98941.38;4995655;28;20049;-79
2021/05/05 11:41:58;;;;;;;1.65;0.90;;;;;;;10.56;86.51;98942.22;5017314;28;20022;-79
2021/05/05 11:44:43;;;;;;;2.35;0.85;;;;;;;10.37;86.89;98953.50;5014304;28;20021;-78
2021/05/05 11:47:14;;;;;;;2.40;0.90;;;;;;;10.38;88.98;98951.56;5016666;28;20030;-78
2021/05/05 11:49:44;;;;;;;6.47;0.90;;;;;;;10.54;90.36;98951.84;5021003;28;20057;-79
2021/05/05 11:52:23;;;;;;;1.58;0.80;;;;;;;10.42;90.04;98963.06;4994217;28;20038;-78